sensor_id;sensor_type;location;lat;lon;timestamp;pressure;altitude;pressure_sealevel;temperature;humidity
35716;BME280;21840;44.920;8.616;2023-03-03T00:00:48;100524.50;;;13.67;44.30
35716;BME280;21840;44.920;8.616;2023-03-03T00:03:17;100531.97;;;13.26;45.64
35716;BME280;21840;44.920;8.616;2023-03-03T00:05:43;100523.75;;;13.56;44.65
35716;BME280;21840;44.920;8.616;2023-03-03T00:08:09;100527.44;;;13.64;44.71
35716;BME280;21840;44.920;8.616;2023-03-03T00:10:35;100525.81;;;13.35;45.32
35716;BME280;21840;44.920;8.616;2023-03-03T00:13:01;100523.00;;;13.46;44.72
35716;BME280;21840;44.920;8.616;2023-03-03T00:15:28;100530.41;;;13.61;44.17
35716;BME280;21840;44.920;8.616;2023-03-03T00:17:54;100531.47;;;13.12;45.30
35716;BME280;21840;44.920;8.616;2023-03-03T00:20:30;100533.91;;;12.68;46.70
35716;BME280;21840;44.920;8.616;2023-03-03T00:23:06;100536.22;;;12.81;46.21
35716;BME280;21840;44.920;8.616;2023-03-03T00:25:38;100533.84;;;13.15;45.56
35716;BME280;21840;44.920;8.616;2023-03-03T00:30:43;100525.94;;;12.50;46.70
35716;BME280;21840;44.920;8.616;2023-03-03T00:33:36;100522.41;;;12.03;47.53
35716;BME280;21840;44.920;8.616;2023-03-03T00:36:25;100520.06;;;11.71;49.20
35716;BME280;21840;44.920;8.616;2023-03-03T00:38:53;100525.03;;;11.83;49.24
35716;BME280;21840;44.920;8.616;2023-03-03T00:41:26;100525.44;;;11.69;49.10
35716;BME280;21840;44.920;8.616;2023-03-03T00:43:52;100519.50;;;11.67;48.68
35716;BME280;21840;44.920;8.616;2023-03-03T00:46:20;100519.38;;;11.78;48.56
35716;BME280;21840;44.920;8.616;2023-03-03T00:48:47;100517.25;;;11.53;49.09
35716;BME280;21840;44.920;8.616;2023-03-03T00:51:28;100508.59;;;11.91;48.60
35716;BME280;21840;44.920;8.616;2023-03-03T00:53:55;100521.28;;;11.47;48.79
35716;BME280;21840;44.920;8.616;2023-03-03T00:56:21;100513.03;;;11.91;48.64
35716;BME280;21840;44.920;8.616;2023-03-03T00:58:47;100510.09;;;11.94;48.49
35716;BME280;21840;44.920;8.616;2023-03-03T01:01:16;100508.53;;;11.42;49.13
35716;BME280;21840;44.920;8.616;2023-03-03T01:03:45;100513.69;;;11.54;48.94
35716;BME280;21840;44.920;8.616;2023-03-03T01:06:11;100521.97;;;11.49;49.55
35716;BME280;21840;44.920;8.616;2023-03-03T01:08:37;100519.75;;;11.54;49.58
35716;BME280;21840;44.920;8.616;2023-03-03T01:11:06;100522.41;;;11.74;49.37
35716;BME280;21840;44.920;8.616;2023-03-03T01:13:34;100517.81;;;11.85;48.97
35716;BME280;21840;44.920;8.616;2023-03-03T01:16:01;100517.41;;;11.80;49.33
35716;BME280;21840;44.920;8.616;2023-03-03T01:18:28;100512.16;;;11.61;49.87
35716;BME280;21840;44.920;8.616;2023-03-03T01:20:54;100512.28;;;12.08;48.95
35716;BME280;21840;44.920;8.616;2023-03-03T01:23:19;100517.00;;;11.75;49.00
35716;BME280;21840;44.920;8.616;2023-03-03T01:25:45;100517.19;;;11.93;48.54
35716;BME280;21840;44.920;8.616;2023-03-03T01:28:10;100519.81;;;11.93;49.18
35716;BME280;21840;44.920;8.616;2023-03-03T01:30:37;100513.25;;;12.07;48.62
35716;BME280;21840;44.920;8.616;2023-03-03T01:33:03;100513.56;;;12.04;48.79
35716;BME280;21840;44.920;8.616;2023-03-03T01:35:29;100509.41;;;12.11;48.95
35716;BME280;21840;44.920;8.616;2023-03-03T01:37:55;100512.03;;;11.92;48.88
35716;BME280;21840;44.920;8.616;2023-03-03T01:40:26;100507.06;;;11.89;49.25
35716;BME280;21840;44.920;8.616;2023-03-03T01:42:52;100510.06;;;11.84;49.30
35716;BME280;21840;44.920;8.616;2023-03-03T01:47:49;100500.09;;;12.07;49.30
35716;BME280;21840;44.920;8.616;2023-03-03T01:53:13;100501.09;;;12.06;49.28
35716;BME280;21840;44.920;8.616;2023-03-03T01:55:41;100496.25;;;11.92;49.55
35716;BME280;21840;44.920;8.616;2023-03-03T01:58:11;100492.06;;;11.40;50.83
35716;BME280;21840;44.920;8.616;2023-03-03T02:00:41;100489.19;;;11.43;51.31
35716;BME280;21840;44.920;8.616;2023-03-03T02:03:08;100497.19;;;11.52;50.64
35716;BME280;21840;44.920;8.616;2023-03-03T02:05:35;100493.69;;;10.72;53.02
35716;BME280;21840;44.920;8.616;2023-03-03T02:08:02;100494.56;;;10.82;53.17
35716;BME280;21840;44.920;8.616;2023-03-03T02:10:28;100482.81;;;10.25;55.09
35716;BME280;21840;44.920;8.616;2023-03-03T02:12:56;100486.97;;;10.79;53.61
35716;BME280;21840;44.920;8.616;2023-03-03T02:17:49;100482.78;;;10.36;54.27
35716;BME280;21840;44.920;8.616;2023-03-03T02:22:48;100479.72;;;11.12;52.69
35716;BME280;21840;44.920;8.616;2023-03-03T02:25:24;100476.91;;;10.94;52.60
35716;BME280;21840;44.920;8.616;2023-03-03T02:27:51;100473.59;;;10.30;54.03
35716;BME280;21840;44.920;8.616;2023-03-03T02:30:20;100465.56;;;11.03;52.55
35716;BME280;21840;44.920;8.616;2023-03-03T02:32:46;100469.97;;;10.93;52.62
35716;BME280;21840;44.920;8.616;2023-03-03T02:35:30;100465.06;;;11.19;51.97
35716;BME280;21840;44.920;8.616;2023-03-03T02:38:06;100462.28;;;11.11;52.15
35716;BME280;21840;44.920;8.616;2023-03-03T02:40:36;100467.75;;;10.88;52.67
35716;BME280;21840;44.920;8.616;2023-03-03T02:43:05;100469.06;;;11.13;51.71
35716;BME280;21840;44.920;8.616;2023-03-03T02:45:31;100469.13;;;10.83;52.60
35716;BME280;21840;44.920;8.616;2023-03-03T02:47:56;100465.44;;;11.05;51.21
35716;BME280;21840;44.920;8.616;2023-03-03T02:50:22;100460.22;;;11.14;50.67
35716;BME280;21840;44.920;8.616;2023-03-03T02:52:48;100462.53;;;11.08;50.40
35716;BME280;21840;44.920;8.616;2023-03-03T02:55:13;100456.41;;;10.88;50.83
35716;BME280;21840;44.920;8.616;2023-03-03T02:57:39;100450.44;;;10.66;50.88
35716;BME280;21840;44.920;8.616;2023-03-03T03:00:05;100456.97;;;10.41;51.81
35716;BME280;21840;44.920;8.616;2023-03-03T03:02:31;100458.34;;;10.45;51.37
35716;BME280;21840;44.920;8.616;2023-03-03T03:04:57;100457.03;;;10.30;51.92
35716;BME280;21840;44.920;8.616;2023-03-03T03:07:23;100450.59;;;10.23;51.82
35716;BME280;21840;44.920;8.616;2023-03-03T03:09:48;100453.78;;;10.47;51.52
35716;BME280;21840;44.920;8.616;2023-03-03T03:12:14;100453.59;;;10.08;51.92
35716;BME280;21840;44.920;8.616;2023-03-03T03:14:40;100456.53;;;10.36;51.90
35716;BME280;21840;44.920;8.616;2023-03-03T03:17:06;100449.03;;;10.10;52.32
35716;BME280;21840;44.920;8.616;2023-03-03T03:19:32;100441.53;;;10.27;52.05
35716;BME280;21840;44.920;8.616;2023-03-03T03:22:00;100445.25;;;10.24;52.05
35716;BME280;21840;44.920;8.616;2023-03-03T03:24:27;100441.38;;;9.77;53.05
35716;BME280;21840;44.920;8.616;2023-03-03T03:26:57;100441.22;;;10.41;51.84
35716;BME280;21840;44.920;8.616;2023-03-03T03:29:24;100445.22;;;10.45;51.68
35716;BME280;21840;44.920;8.616;2023-03-03T03:31:50;100439.38;;;10.32;52.12
35716;BME280;21840;44.920;8.616;2023-03-03T03:34:15;100436.22;;;10.17;52.27
35716;BME280;21840;44.920;8.616;2023-03-03T03:36:42;100442.88;;;10.00;53.00
35716;BME280;21840;44.920;8.616;2023-03-03T03:39:09;100433.16;;;10.12;52.86
35716;BME280;21840;44.920;8.616;2023-03-03T03:41:38;100437.88;;;10.39;52.36
35716;BME280;21840;44.920;8.616;2023-03-03T03:44:05;100435.97;;;10.41;52.04
35716;BME280;21840;44.920;8.616;2023-03-03T03:46:30;100440.59;;;10.58;51.97
35716;BME280;21840;44.920;8.616;2023-03-03T03:48:56;100436.56;;;10.54;51.97
35716;BME280;21840;44.920;8.616;2023-03-03T03:51:22;100437.19;;;10.37;52.59
35716;BME280;21840;44.920;8.616;2023-03-03T03:53:47;100444.06;;;10.38;52.52
35716;BME280;21840;44.920;8.616;2023-03-03T03:56:13;100434.50;;;10.06;53.15
35716;BME280;21840;44.920;8.616;2023-03-03T03:58:40;100443.03;;;10.50;52.17
35716;BME280;21840;44.920;8.616;2023-03-03T04:01:08;100429.56;;;10.13;52.83
35716;BME280;21840;44.920;8.616;2023-03-03T04:03:38;100431.28;;;10.24;53.13
35716;BME280;21840;44.920;8.616;2023-03-03T04:06:08;100429.72;;;10.42;52.54
35716;BME280;21840;44.920;8.616;2023-03-03T04:08:33;100437.03;;;10.18;52.70
35716;BME280;21840;44.920;8.616;2023-03-03T04:10:59;100435.66;;;10.13;52.80
35716;BME280;21840;44.920;8.616;2023-03-03T04:13:25;100441.44;;;10.38;52.24
35716;BME280;21840;44.920;8.616;2023-03-03T04:15:53;100431.69;;;9.98;52.94
35716;BME280;21840;44.920;8.616;2023-03-03T04:18:19;100436.84;;;9.79;53.33
35716;BME280;21840;44.920;8.616;2023-03-03T04:20:45;100438.53;;;10.10;52.89
35716;BME280;21840;44.920;8.616;2023-03-03T04:23:10;100432.84;;;10.57;51.33
35716;BME280;21840;44.920;8.616;2023-03-03T04:25:37;100437.25;;;10.56;51.32
35716;BME280;21840;44.920;8.616;2023-03-03T04:28:11;100441.69;;;10.66;51.01
35716;BME280;21840;44.920;8.616;2023-03-03T04:30:37;100440.50;;;10.39;51.17
35716;BME280;21840;44.920;8.616;2023-03-03T04:33:02;100435.41;;;10.17;51.61
35716;BME280;21840;44.920;8.616;2023-03-03T04:35:30;100437.00;;;10.08;51.98
35716;BME280;21840;44.920;8.616;2023-03-03T04:37:56;100434.69;;;10.14;51.63
35716;BME280;21840;44.920;8.616;2023-03-03T04:40:22;100436.56;;;10.54;51.01
35716;BME280;21840;44.920;8.616;2023-03-03T04:42:49;100440.84;;;10.04;51.65
35716;BME280;21840;44.920;8.616;2023-03-03T04:45:15;100430.78;;;10.30;51.09
35716;BME280;21840;44.920;8.616;2023-03-03T04:47:41;100431.06;;;9.85;52.13
35716;BME280;21840;44.920;8.616;2023-03-03T04:50:07;100432.50;;;10.20;51.26
35716;BME280;21840;44.920;8.616;2023-03-03T04:52:34;100429.31;;;10.37;50.87
35716;BME280;21840;44.920;8.616;2023-03-03T04:55:00;100429.97;;;9.87;51.83
35716;BME280;21840;44.920;8.616;2023-03-03T04:57:26;100428.94;;;10.00;51.79
35716;BME280;21840;44.920;8.616;2023-03-03T04:59:52;100415.47;;;9.62;52.73
35716;BME280;21840;44.920;8.616;2023-03-03T05:02:18;100423.31;;;9.83;52.14
35716;BME280;21840;44.920;8.616;2023-03-03T05:04:45;100423.72;;;9.79;52.11
35716;BME280;21840;44.920;8.616;2023-03-03T05:07:10;100416.44;;;9.61;52.73
35716;BME280;21840;44.920;8.616;2023-03-03T05:09:36;100416.72;;;9.47;52.80
35716;BME280;21840;44.920;8.616;2023-03-03T05:12:02;100412.81;;;9.83;52.23
35716;BME280;21840;44.920;8.616;2023-03-03T05:14:28;100415.72;;;10.01;51.71
35716;BME280;21840;44.920;8.616;2023-03-03T05:16:53;100410.78;;;9.87;51.99
35716;BME280;21840;44.920;8.616;2023-03-03T05:19:19;100417.63;;;9.57;52.68
35716;BME280;21840;44.920;8.616;2023-03-03T05:21:44;100420.56;;;9.85;51.91
35716;BME280;21840;44.920;8.616;2023-03-03T05:24:11;100416.16;;;9.85;51.81
35716;BME280;21840;44.920;8.616;2023-03-03T05:26:38;100416.34;;;9.52;52.31
35716;BME280;21840;44.920;8.616;2023-03-03T05:29:04;100418.97;;;9.72;52.12
35716;BME280;21840;44.920;8.616;2023-03-03T05:31:30;100424.47;;;9.69;52.17
35716;BME280;21840;44.920;8.616;2023-03-03T05:33:55;100422.84;;;9.36;52.89
35716;BME280;21840;44.920;8.616;2023-03-03T05:36:21;100413.66;;;9.63;52.59
35716;BME280;21840;44.920;8.616;2023-03-03T05:38:47;100419.16;;;9.81;52.16
35716;BME280;21840;44.920;8.616;2023-03-03T05:41:12;100418.13;;;9.93;52.00
35716;BME280;21840;44.920;8.616;2023-03-03T05:43:38;100422.06;;;9.24;53.43
35716;BME280;21840;44.920;8.616;2023-03-03T05:46:03;100420.41;;;9.77;52.25
35716;BME280;21840;44.920;8.616;2023-03-03T05:48:29;100413.59;;;9.95;51.75
35716;BME280;21840;44.920;8.616;2023-03-03T05:50:57;100409.66;;;10.10;51.54
35716;BME280;21840;44.920;8.616;2023-03-03T05:53:24;100423.38;;;9.93;51.78
35716;BME280;21840;44.920;8.616;2023-03-03T05:55:49;100423.50;;;9.49;52.60
35716;BME280;21840;44.920;8.616;2023-03-03T05:58:15;100419.38;;;9.89;52.00
35716;BME280;21840;44.920;8.616;2023-03-03T06:00:40;100423.72;;;9.79;52.04
35716;BME280;21840;44.920;8.616;2023-03-03T06:03:06;100423.81;;;9.98;51.94
35716;BME280;21840;44.920;8.616;2023-03-03T06:05:31;100414.63;;;10.04;51.50
35716;BME280;21840;44.920;8.616;2023-03-03T06:07:56;100416.97;;;10.28;51.23
35716;BME280;21840;44.920;8.616;2023-03-03T06:10:22;100421.31;;;10.18;51.27
35716;BME280;21840;44.920;8.616;2023-03-03T06:12:52;100423.66;;;10.42;51.20
35716;BME280;21840;44.920;8.616;2023-03-03T06:15:20;100427.03;;;10.53;50.66
35716;BME280;21840;44.920;8.616;2023-03-03T06:17:46;100423.34;;;10.35;51.29
35716;BME280;21840;44.920;8.616;2023-03-03T06:20:11;100426.50;;;10.29;51.25
35716;BME280;21840;44.920;8.616;2023-03-03T06:22:37;100418.38;;;10.32;51.05
35716;BME280;21840;44.920;8.616;2023-03-03T06:25:03;100419.97;;;10.54;50.75
35716;BME280;21840;44.920;8.616;2023-03-03T06:27:28;100427.09;;;10.42;51.20
35716;BME280;21840;44.920;8.616;2023-03-03T06:29:54;100423.47;;;10.64;50.59
35716;BME280;21840;44.920;8.616;2023-03-03T06:32:19;100426.47;;;10.60;50.77
35716;BME280;21840;44.920;8.616;2023-03-03T06:34:45;100424.47;;;10.42;51.18
35716;BME280;21840;44.920;8.616;2023-03-03T06:37:10;100423.44;;;10.54;50.35
35716;BME280;21840;44.920;8.616;2023-03-03T06:39:35;100425.94;;;10.66;50.67
35716;BME280;21840;44.920;8.616;2023-03-03T06:42:01;100424.19;;;10.14;51.75
35716;BME280;21840;44.920;8.616;2023-03-03T06:44:26;100429.75;;;10.92;50.19
35716;BME280;21840;44.920;8.616;2023-03-03T06:46:52;100431.53;;;10.92;50.38
35716;BME280;21840;44.920;8.616;2023-03-03T06:49:17;100435.16;;;11.20;49.29
35716;BME280;21840;44.920;8.616;2023-03-03T06:51:43;100437.94;;;11.09;49.64
35716;BME280;21840;44.920;8.616;2023-03-03T06:54:15;100437.81;;;11.30;48.87
35716;BME280;21840;44.920;8.616;2023-03-03T06:56:42;100439.63;;;11.29;48.84
35716;BME280;21840;44.920;8.616;2023-03-03T06:59:18;100444.31;;;11.35;49.04
35716;BME280;21840;44.920;8.616;2023-03-03T07:01:46;100435.31;;;11.48;48.73
35716;BME280;21840;44.920;8.616;2023-03-03T07:06:46;100445.13;;;11.45;48.45
35716;BME280;21840;44.920;8.616;2023-03-03T07:09:19;100447.63;;;11.18;48.96
35716;BME280;21840;44.920;8.616;2023-03-03T07:11:45;100432.69;;;11.48;48.73
35716;BME280;21840;44.920;8.616;2023-03-03T07:14:17;100448.97;;;11.02;48.86
35716;BME280;21840;44.920;8.616;2023-03-03T07:16:43;100442.91;;;11.02;49.18
35716;BME280;21840;44.920;8.616;2023-03-03T07:19:34;100448.91;;;11.33;48.69
35716;BME280;21840;44.920;8.616;2023-03-03T07:22:20;100447.25;;;11.91;47.75
35716;BME280;21840;44.920;8.616;2023-03-03T07:24:58;100449.84;;;11.42;47.98
35716;BME280;21840;44.920;8.616;2023-03-03T07:27:27;100448.75;;;11.44;48.19
35716;BME280;21840;44.920;8.616;2023-03-03T07:30:20;100452.03;;;11.85;47.64
35716;BME280;21840;44.920;8.616;2023-03-03T07:32:50;100448.75;;;11.93;47.49
35716;BME280;21840;44.920;8.616;2023-03-03T07:35:41;100447.63;;;11.76;47.36
35716;BME280;21840;44.920;8.616;2023-03-03T07:40:50;100463.34;;;12.25;47.03
35716;BME280;21840;44.920;8.616;2023-03-03T07:43:38;100456.75;;;11.82;47.76
35716;BME280;21840;44.920;8.616;2023-03-03T07:48:40;100455.41;;;12.35;47.03
35716;BME280;21840;44.920;8.616;2023-03-03T07:51:19;100456.34;;;12.81;46.18
35716;BME280;21840;44.920;8.616;2023-03-03T07:53:47;100462.13;;;12.19;47.17
35716;BME280;21840;44.920;8.616;2023-03-03T07:58:47;100457.16;;;12.81;46.60
35716;BME280;21840;44.920;8.616;2023-03-03T08:01:38;100463.94;;;12.84;46.47
35716;BME280;21840;44.920;8.616;2023-03-03T08:04:38;100459.59;;;12.92;46.54
35716;BME280;21840;44.920;8.616;2023-03-03T08:07:11;100454.41;;;13.46;45.35
35716;BME280;21840;44.920;8.616;2023-03-03T08:09:57;100459.72;;;13.19;45.83
35716;BME280;21840;44.920;8.616;2023-03-03T08:12:33;100460.03;;;13.15;46.17
35716;BME280;21840;44.920;8.616;2023-03-03T08:15:14;100467.66;;;13.54;45.37
35716;BME280;21840;44.920;8.616;2023-03-03T08:17:41;100459.53;;;13.66;44.84
35716;BME280;21840;44.920;8.616;2023-03-03T08:20:41;100463.75;;;13.58;44.79
35716;BME280;21840;44.920;8.616;2023-03-03T08:23:08;100466.41;;;13.85;44.82
35716;BME280;21840;44.920;8.616;2023-03-03T08:25:33;100464.94;;;14.08;44.41
35716;BME280;21840;44.920;8.616;2023-03-03T08:27:59;100467.59;;;13.90;44.49
35716;BME280;21840;44.920;8.616;2023-03-03T08:30:24;100468.88;;;14.04;44.27
35716;BME280;21840;44.920;8.616;2023-03-03T08:32:50;100471.59;;;13.94;44.27
35716;BME280;21840;44.920;8.616;2023-03-03T08:35:15;100472.50;;;14.29;44.05
35716;BME280;21840;44.920;8.616;2023-03-03T08:37:41;100477.56;;;13.96;44.23
35716;BME280;21840;44.920;8.616;2023-03-03T08:40:07;100474.28;;;14.02;44.10
35716;BME280;21840;44.920;8.616;2023-03-03T08:42:32;100474.31;;;14.55;43.21
35716;BME280;21840;44.920;8.616;2023-03-03T08:44:58;100468.06;;;14.03;43.99
35716;BME280;21840;44.920;8.616;2023-03-03T08:47:24;100468.59;;;13.89;44.38
35716;BME280;21840;44.920;8.616;2023-03-03T08:49:50;100471.72;;;14.37;43.61
35716;BME280;21840;44.920;8.616;2023-03-03T08:52:15;100477.25;;;14.78;42.84
35716;BME280;21840;44.920;8.616;2023-03-03T08:54:41;100470.31;;;14.51;43.36
35716;BME280;21840;44.920;8.616;2023-03-03T08:57:06;100481.19;;;14.82;42.82
35716;BME280;21840;44.920;8.616;2023-03-03T08:59:32;100480.00;;;14.68;42.93
35716;BME280;21840;44.920;8.616;2023-03-03T09:02:02;100469.88;;;14.55;43.26
35716;BME280;21840;44.920;8.616;2023-03-03T09:04:27;100481.97;;;15.08;42.46
35716;BME280;21840;44.920;8.616;2023-03-03T09:06:53;100481.13;;;15.08;42.02
35716;BME280;21840;44.920;8.616;2023-03-03T09:09:19;100481.41;;;14.88;42.71
35716;BME280;21840;44.920;8.616;2023-03-03T09:11:44;100480.13;;;15.09;41.91
35716;BME280;21840;44.920;8.616;2023-03-03T09:14:13;100477.53;;;15.34;41.24
35716;BME280;21840;44.920;8.616;2023-03-03T09:16:50;100479.72;;;15.38;41.36
35716;BME280;21840;44.920;8.616;2023-03-03T09:19:30;100485.06;;;14.96;42.57
35716;BME280;21840;44.920;8.616;2023-03-03T09:22:18;100484.56;;;15.76;41.32
35716;BME280;21840;44.920;8.616;2023-03-03T09:24:46;100483.06;;;15.89;40.65
35716;BME280;21840;44.920;8.616;2023-03-03T09:27:28;100484.84;;;15.64;40.85
35716;BME280;21840;44.920;8.616;2023-03-03T09:29:56;100483.03;;;15.40;41.08
35716;BME280;21840;44.920;8.616;2023-03-03T09:34:53;100477.28;;;15.69;40.80
35716;BME280;21840;44.920;8.616;2023-03-03T09:37:25;100477.56;;;16.07;40.61
35716;BME280;21840;44.920;8.616;2023-03-03T09:39:56;100474.94;;;15.99;40.95
35716;BME280;21840;44.920;8.616;2023-03-03T09:43:01;100482.53;;;16.18;40.74
35716;BME280;21840;44.920;8.616;2023-03-03T10:12:36;100467.28;;;16.12;39.00
35716;BME280;21840;44.920;8.616;2023-03-03T10:18:28;100473.69;;;16.98;38.74
35716;BME280;21840;44.920;8.616;2023-03-03T10:34:23;100464.41;;;17.25;37.48
35716;BME280;21840;44.920;8.616;2023-03-03T10:42:15;100468.00;;;17.56;36.72
35716;BME280;21840;44.920;8.616;2023-03-03T10:45:06;100472.66;;;17.54;36.73
35716;BME280;21840;44.920;8.616;2023-03-03T10:50:13;100476.19;;;17.69;36.46
35716;BME280;21840;44.920;8.616;2023-03-03T10:52:52;100476.72;;;17.18;37.52
35716;BME280;21840;44.920;8.616;2023-03-03T10:55:35;100471.88;;;17.68;36.82
35716;BME280;21840;44.920;8.616;2023-03-03T11:00:57;100472.81;;;17.52;36.52
35716;BME280;21840;44.920;8.616;2023-03-03T11:06:14;100468.59;;;17.66;37.88
35716;BME280;21840;44.920;8.616;2023-03-03T11:16:40;100466.03;;;17.73;37.32
35716;BME280;21840;44.920;8.616;2023-03-03T11:30:05;100446.13;;;17.92;36.32
35716;BME280;21840;44.920;8.616;2023-03-03T11:32:50;100453.59;;;18.11;35.49
35716;BME280;21840;44.920;8.616;2023-03-03T11:35:37;100437.38;;;18.06;34.28
35716;BME280;21840;44.920;8.616;2023-03-03T11:40:52;100440.78;;;18.15;34.63
35716;BME280;21840;44.920;8.616;2023-03-03T11:43:30;100431.78;;;18.01;34.78
35716;BME280;21840;44.920;8.616;2023-03-03T11:46:12;100427.81;;;17.97;34.39
35716;BME280;21840;44.920;8.616;2023-03-03T11:48:58;100431.63;;;18.17;34.22
35716;BME280;21840;44.920;8.616;2023-03-03T11:54:33;100427.50;;;18.15;34.61
35716;BME280;21840;44.920;8.616;2023-03-03T11:57:43;100419.66;;;17.83;34.28
35716;BME280;21840;44.920;8.616;2023-03-03T12:05:26;100411.50;;;17.85;34.71
35716;BME280;21840;44.920;8.616;2023-03-03T12:11:13;100400.00;;;18.22;34.36
35716;BME280;21840;44.920;8.616;2023-03-03T12:16:33;100390.25;;;18.95;33.63
35716;BME280;21840;44.920;8.616;2023-03-03T12:21:54;100391.84;;;18.90;33.80
35716;BME280;21840;44.920;8.616;2023-03-03T12:24:40;100389.13;;;19.05;33.81
35716;BME280;21840;44.920;8.616;2023-03-03T12:27:22;100383.03;;;19.11;33.97
35716;BME280;21840;44.920;8.616;2023-03-03T12:32:58;100383.84;;;18.90;34.16
35716;BME280;21840;44.920;8.616;2023-03-03T12:35:38;100380.38;;;19.11;34.01
35716;BME280;21840;44.920;8.616;2023-03-03T12:41:02;100377.09;;;18.72;34.54
35716;BME280;21840;44.920;8.616;2023-03-03T12:48:45;100362.94;;;19.08;33.99
35716;BME280;21840;44.920;8.616;2023-03-03T12:51:36;100362.50;;;19.05;34.41
35716;BME280;21840;44.920;8.616;2023-03-03T12:54:27;100364.16;;;19.27;33.98
35716;BME280;21840;44.920;8.616;2023-03-03T12:56:58;100360.72;;;19.12;33.85
35716;BME280;21840;44.920;8.616;2023-03-03T13:05:00;100357.97;;;19.27;33.45
35716;BME280;21840;44.920;8.616;2023-03-03T13:07:37;100356.84;;;19.14;33.44
35716;BME280;21840;44.920;8.616;2023-03-03T13:10:12;100351.66;;;19.06;33.52
35716;BME280;21840;44.920;8.616;2023-03-03T13:16:01;100350.19;;;19.04;33.90
35716;BME280;21840;44.920;8.616;2023-03-03T13:21:28;100349.47;;;19.38;33.52
35716;BME280;21840;44.920;8.616;2023-03-03T13:29:08;100344.41;;;19.43;32.87
35716;BME280;21840;44.920;8.616;2023-03-03T13:31:43;100341.91;;;19.42;31.33
35716;BME280;21840;44.920;8.616;2023-03-03T13:34:22;100349.47;;;19.38;31.47
35716;BME280;21840;44.920;8.616;2023-03-03T13:37:04;100338.09;;;19.51;31.29
35716;BME280;21840;44.920;8.616;2023-03-03T13:39:38;100343.28;;;19.31;32.32
35716;BME280;21840;44.920;8.616;2023-03-03T13:44:51;100334.06;;;19.61;32.32
35716;BME280;21840;44.920;8.616;2023-03-03T13:47:25;100340.25;;;19.62;32.12
35716;BME280;21840;44.920;8.616;2023-03-03T13:50:26;100336.72;;;19.61;32.51
35716;BME280;21840;44.920;8.616;2023-03-03T13:56:34;100331.56;;;19.53;31.58
35716;BME280;21840;44.920;8.616;2023-03-03T13:59:19;100325.72;;;19.65;31.79
35716;BME280;21840;44.920;8.616;2023-03-03T14:04:53;100324.72;;;18.94;32.61
35716;BME280;21840;44.920;8.616;2023-03-03T14:07:29;100323.56;;;19.53;31.54
35716;BME280;21840;44.920;8.616;2023-03-03T14:12:41;100314.31;;;19.49;31.24
35716;BME280;21840;44.920;8.616;2023-03-03T14:15:17;100327.91;;;19.61;30.88
35716;BME280;21840;44.920;8.616;2023-03-03T14:18:03;100317.22;;;19.54;31.05
35716;BME280;21840;44.920;8.616;2023-03-03T14:20:34;100319.78;;;19.69;30.79
35716;BME280;21840;44.920;8.616;2023-03-03T14:23:32;100313.97;;;19.59;31.12
35716;BME280;21840;44.920;8.616;2023-03-03T14:26:07;100317.50;;;19.66;31.18
35716;BME280;21840;44.920;8.616;2023-03-03T14:28:45;100315.88;;;19.65;31.26
35716;BME280;21840;44.920;8.616;2023-03-03T14:34:13;100310.31;;;19.67;31.68
35716;BME280;21840;44.920;8.616;2023-03-03T14:36:42;100307.59;;;19.53;31.05
35716;BME280;21840;44.920;8.616;2023-03-03T14:39:40;100309.09;;;19.63;30.93
35716;BME280;21840;44.920;8.616;2023-03-03T14:45:40;100303.66;;;19.49;31.21
35716;BME280;21840;44.920;8.616;2023-03-03T14:48:16;100307.94;;;19.72;31.18
35716;BME280;21840;44.920;8.616;2023-03-03T14:50:50;100307.44;;;19.61;31.48
35716;BME280;21840;44.920;8.616;2023-03-03T14:53:36;100309.59;;;19.73;31.33
35716;BME280;21840;44.920;8.616;2023-03-03T14:56:25;100308.88;;;19.64;31.11
35716;BME280;21840;44.920;8.616;2023-03-03T14:58:52;100306.19;;;19.57;30.98
35716;BME280;21840;44.920;8.616;2023-03-03T15:01:33;100310.22;;;19.75;30.17
35716;BME280;21840;44.920;8.616;2023-03-03T15:04:02;100303.38;;;19.66;30.38
35716;BME280;21840;44.920;8.616;2023-03-03T15:06:40;100311.63;;;19.71;30.59
35716;BME280;21840;44.920;8.616;2023-03-03T15:12:26;100307.50;;;19.68;30.12
35716;BME280;21840;44.920;8.616;2023-03-03T15:15:06;100307.44;;;19.61;30.16
35716;BME280;21840;44.920;8.616;2023-03-03T15:36:38;100290.38;;;19.84;30.05
35716;BME280;21840;44.920;8.616;2023-03-03T15:41:43;100289.19;;;19.93;29.90
35716;BME280;21840;44.920;8.616;2023-03-03T15:44:21;100296.59;;;19.98;30.16
35716;BME280;21840;44.920;8.616;2023-03-03T15:58:11;100296.69;;;20.18;30.71
35716;BME280;21840;44.920;8.616;2023-03-03T16:01:16;100286.97;;;20.03;30.53
35716;BME280;21840;44.920;8.616;2023-03-03T16:03:52;100297.47;;;20.12;30.60
35716;BME280;21840;44.920;8.616;2023-03-03T16:06:32;100292.72;;;20.00;30.71
35716;BME280;21840;44.920;8.616;2023-03-03T16:15:17;100295.69;;;19.77;31.34
35716;BME280;21840;44.920;8.616;2023-03-03T16:18:01;100295.47;;;19.51;31.66
35716;BME280;21840;44.920;8.616;2023-03-03T16:20:29;100295.88;;;19.48;31.87
35716;BME280;21840;44.920;8.616;2023-03-03T16:26:06;100295.09;;;19.26;31.61
35716;BME280;21840;44.920;8.616;2023-03-03T16:28:43;100298.09;;;19.16;31.68
35716;BME280;21840;44.920;8.616;2023-03-03T16:31:23;100307.28;;;18.92;31.85
35716;BME280;21840;44.920;8.616;2023-03-03T16:45:33;100319.41;;;18.94;32.17
35716;BME280;21840;44.920;8.616;2023-03-03T16:53:44;100325.00;;;18.63;33.03
35716;BME280;21840;44.920;8.616;2023-03-03T16:56:27;100333.81;;;18.64;33.10
35716;BME280;21840;44.920;8.616;2023-03-03T17:20:27;100354.06;;;17.99;34.49
35716;BME280;21840;44.920;8.616;2023-03-03T17:34:25;100365.81;;;17.66;34.61